sensor_id;sensor_type;location;lat;lon;timestamp;P1;durP1;ratioP1;P2;durP2;ratioP2
18125;SDS011;53956;52.442;13.284;2022-09-03T00:00:18;5.57;;;1.70;;
18125;SDS011;53956;52.442;13.284;2022-09-03T00:02:46;6.43;;;2.03;;
18125;SDS011;53956;52.442;13.284;2022-09-03T00:05:20;3.47;;;2.10;;
18125;SDS011;53956;52.442;13.284;2022-09-03T00:07:53;4.57;;;2.20;;
18125;SDS011;53956;52.442;13.284;2022-09-03T00:10:27;4.22;;;2.10;;
18125;SDS011;53956;52.442;13.284;2022-09-03T00:13:00;2.83;;;2.00;;
18125;SDS011;53956;52.442;13.284;2022-09-03T00:15:30;3.92;;;2.35;;
18125;SDS011;53956;52.442;13.284;2022-09-03T00:18:00;3.95;;;1.98;;
18125;SDS011;53956;52.442;13.284;2022-09-03T00:20:33;3.33;;;2.03;;
18125;SDS011;53956;52.442;13.284;2022-09-03T00:23:05;4.13;;;2.50;;
18125;SDS011;53956;52.442;13.284;2022-09-03T00:25:36;4.00;;;2.00;;
18125;SDS011;53956;52.442;13.284;2022-09-03T00:28:06;4.80;;;2.03;;
18125;SDS011;53956;52.442;13.284;2022-09-03T00:30:38;3.95;;;2.17;;
18125;SDS011;53956;52.442;13.284;2022-09-03T00:33:08;3.35;;;1.98;;
18125;SDS011;53956;52.442;13.284;2022-09-03T00:35:42;3.88;;;1.92;;
18125;SDS011;53956;52.442;13.284;2022-09-03T00:38:12;3.30;;;2.00;;
18125;SDS011;53956;52.442;13.284;2022-09-03T00:40:43;2.58;;;1.70;;
18125;SDS011;53956;52.442;13.284;2022-09-03T00:43:20;3.28;;;2.00;;
18125;SDS011;53956;52.442;13.284;2022-09-03T00:45:59;5.20;;;2.25;;
18125;SDS011;53956;52.442;13.284;2022-09-03T00:48:32;3.03;;;1.88;;
18125;SDS011;53956;52.442;13.284;2022-09-03T00:51:12;3.47;;;2.00;;
18125;SDS011;53956;52.442;13.284;2022-09-03T00:53:52;5.25;;;1.85;;
18125;SDS011;53956;52.442;13.284;2022-09-03T00:56:29;4.13;;;2.10;;
18125;SDS011;53956;52.442;13.284;2022-09-03T00:59:07;3.33;;;1.80;;
18125;SDS011;53956;52.442;13.284;2022-09-03T01:01:48;5.65;;;1.95;;
18125;SDS011;53956;52.442;13.284;2022-09-03T01:04:26;5.35;;;2.20;;
18125;SDS011;53956;52.442;13.284;2022-09-03T01:07:04;4.18;;;1.65;;
18125;SDS011;53956;52.442;13.284;2022-09-03T01:09:42;6.18;;;1.80;;
18125;SDS011;53956;52.442;13.284;2022-09-03T01:12:17;2.60;;;1.70;;
18125;SDS011;53956;52.442;13.284;2022-09-03T01:14:56;2.72;;;1.80;;
18125;SDS011;53956;52.442;13.284;2022-09-03T01:17:35;2.85;;;1.80;;
18125;SDS011;53956;52.442;13.284;2022-09-03T01:20:21;3.95;;;1.95;;
18125;SDS011;53956;52.442;13.284;2022-09-03T01:23:08;2.15;;;1.88;;
18125;SDS011;53956;52.442;13.284;2022-09-03T01:25:51;5.68;;;1.80;;
18125;SDS011;53956;52.442;13.284;2022-09-03T01:28:25;4.38;;;1.85;;
18125;SDS011;53956;52.442;13.284;2022-09-03T01:31:05;3.20;;;1.92;;
18125;SDS011;53956;52.442;13.284;2022-09-03T01:33:43;4.05;;;2.10;;
18125;SDS011;53956;52.442;13.284;2022-09-03T01:36:19;5.78;;;2.40;;
18125;SDS011;53956;52.442;13.284;2022-09-03T01:38:54;3.17;;;2.22;;
18125;SDS011;53956;52.442;13.284;2022-09-03T01:41:26;4.18;;;2.20;;
18125;SDS011;53956;52.442;13.284;2022-09-03T01:44:25;4.63;;;2.30;;
18125;SDS011;53956;52.442;13.284;2022-09-03T01:47:06;5.05;;;2.17;;
18125;SDS011;53956;52.442;13.284;2022-09-03T01:49:42;3.80;;;2.00;;
18125;SDS011;53956;52.442;13.284;2022-09-03T01:52:15;2.28;;;2.00;;
18125;SDS011;53956;52.442;13.284;2022-09-03T01:54:51;4.85;;;1.98;;
18125;SDS011;53956;52.442;13.284;2022-09-03T01:57:44;5.25;;;2.10;;
18125;SDS011;53956;52.442;13.284;2022-09-03T02:00:16;3.38;;;2.00;;
18125;SDS011;53956;52.442;13.284;2022-09-03T02:02:45;3.23;;;2.03;;
18125;SDS011;53956;52.442;13.284;2022-09-03T02:05:14;3.17;;;2.38;;
18125;SDS011;53956;52.442;13.284;2022-09-03T02:07:43;4.50;;;2.00;;
18125;SDS011;53956;52.442;13.284;2022-09-03T02:10:13;5.63;;;2.00;;
18125;SDS011;53956;52.442;13.284;2022-09-03T02:12:43;4.55;;;1.90;;
18125;SDS011;53956;52.442;13.284;2022-09-03T02:15:14;3.78;;;2.17;;
18125;SDS011;53956;52.442;13.284;2022-09-03T02:17:44;10.70;;;2.40;;
18125;SDS011;53956;52.442;13.284;2022-09-03T02:20:15;2.47;;;2.00;;
18125;SDS011;53956;52.442;13.284;2022-09-03T02:22:44;3.25;;;1.88;;
18125;SDS011;53956;52.442;13.284;2022-09-03T02:25:12;2.10;;;1.90;;
18125;SDS011;53956;52.442;13.284;2022-09-03T02:27:39;3.72;;;2.17;;
18125;SDS011;53956;52.442;13.284;2022-09-03T02:30:06;2.08;;;1.73;;
18125;SDS011;53956;52.442;13.284;2022-09-03T02:32:36;2.90;;;1.80;;
18125;SDS011;53956;52.442;13.284;2022-09-03T02:35:02;2.35;;;1.75;;
18125;SDS011;53956;52.442;13.284;2022-09-03T02:37:29;2.92;;;1.70;;
18125;SDS011;53956;52.442;13.284;2022-09-03T02:39:56;2.65;;;1.77;;
18125;SDS011;53956;52.442;13.284;2022-09-03T02:42:23;3.53;;;1.90;;
18125;SDS011;53956;52.442;13.284;2022-09-03T02:44:50;3.00;;;2.00;;
18125;SDS011;53956;52.442;13.284;2022-09-03T02:47:20;6.30;;;2.20;;
18125;SDS011;53956;52.442;13.284;2022-09-03T02:49:49;4.85;;;1.95;;
18125;SDS011;53956;52.442;13.284;2022-09-03T02:52:16;3.05;;;1.90;;
18125;SDS011;53956;52.442;13.284;2022-09-03T02:54:43;2.67;;;1.80;;
18125;SDS011;53956;52.442;13.284;2022-09-03T02:57:10;3.90;;;1.85;;
18125;SDS011;53956;52.442;13.284;2022-09-03T02:59:38;2.53;;;1.77;;
18125;SDS011;53956;52.442;13.284;2022-09-03T03:02:08;3.17;;;2.10;;
18125;SDS011;53956;52.442;13.284;2022-09-03T03:04:35;2.67;;;2.00;;
18125;SDS011;53956;52.442;13.284;2022-09-03T03:07:03;3.67;;;1.92;;
18125;SDS011;53956;52.442;13.284;2022-09-03T03:09:30;3.50;;;1.90;;
18125;SDS011;53956;52.442;13.284;2022-09-03T03:11:57;3.58;;;1.85;;
18125;SDS011;53956;52.442;13.284;2022-09-03T03:14:23;2.55;;;1.80;;
18125;SDS011;53956;52.442;13.284;2022-09-03T03:16:50;3.25;;;2.00;;
18125;SDS011;53956;52.442;13.284;2022-09-03T03:19:17;2.28;;;1.90;;
18125;SDS011;53956;52.442;13.284;2022-09-03T03:21:43;5.63;;;2.05;;
18125;SDS011;53956;52.442;13.284;2022-09-03T03:24:11;3.45;;;2.00;;
18125;SDS011;53956;52.442;13.284;2022-09-03T03:26:38;3.13;;;2.22;;
18125;SDS011;53956;52.442;13.284;2022-09-03T03:29:05;3.80;;;2.20;;
18125;SDS011;53956;52.442;13.284;2022-09-03T03:31:32;3.50;;;2.10;;
18125;SDS011;53956;52.442;13.284;2022-09-03T03:34:00;5.05;;;2.03;;
18125;SDS011;53956;52.442;13.284;2022-09-03T03:36:28;2.57;;;2.00;;
18125;SDS011;53956;52.442;13.284;2022-09-03T03:38:57;4.87;;;2.10;;
18125;SDS011;53956;52.442;13.284;2022-09-03T03:41:27;3.00;;;2.17;;
18125;SDS011;53956;52.442;13.284;2022-09-03T03:43:55;3.67;;;2.00;;
18125;SDS011;53956;52.442;13.284;2022-09-03T03:46:24;3.30;;;2.33;;
18125;SDS011;53956;52.442;13.284;2022-09-03T03:48:53;3.60;;;2.43;;
18125;SDS011;53956;52.442;13.284;2022-09-03T03:51:20;3.30;;;2.00;;
18125;SDS011;53956;52.442;13.284;2022-09-03T03:53:47;3.77;;;1.90;;
18125;SDS011;53956;52.442;13.284;2022-09-03T03:56:14;4.67;;;2.03;;
18125;SDS011;53956;52.442;13.284;2022-09-03T03:58:42;5.67;;;2.17;;
18125;SDS011;53956;52.442;13.284;2022-09-03T04:01:10;4.80;;;2.40;;
18125;SDS011;53956;52.442;13.284;2022-09-03T04:03:37;4.32;;;2.28;;
18125;SDS011;53956;52.442;13.284;2022-09-03T04:06:04;2.90;;;2.25;;
18125;SDS011;53956;52.442;13.284;2022-09-03T04:08:33;3.03;;;2.20;;
18125;SDS011;53956;52.442;13.284;2022-09-03T04:11:01;3.60;;;2.40;;
18125;SDS011;53956;52.442;13.284;2022-09-03T04:13:29;5.05;;;2.38;;
18125;SDS011;53956;52.442;13.284;2022-09-03T04:16:01;3.85;;;2.30;;
18125;SDS011;53956;52.442;13.284;2022-09-03T04:18:29;3.53;;;2.33;;
18125;SDS011;53956;52.442;13.284;2022-09-03T04:21:00;3.50;;;2.30;;
18125;SDS011;53956;52.442;13.284;2022-09-03T04:23:29;3.40;;;2.20;;
18125;SDS011;53956;52.442;13.284;2022-09-03T04:25:56;3.80;;;2.20;;
18125;SDS011;53956;52.442;13.284;2022-09-03T04:28:23;4.67;;;2.40;;
18125;SDS011;53956;52.442;13.284;2022-09-03T04:30:50;3.53;;;2.50;;
18125;SDS011;53956;52.442;13.284;2022-09-03T04:33:17;4.67;;;2.50;;
18125;SDS011;53956;52.442;13.284;2022-09-03T04:35:44;4.60;;;2.17;;
18125;SDS011;53956;52.442;13.284;2022-09-03T04:38:11;5.70;;;2.50;;
18125;SDS011;53956;52.442;13.284;2022-09-03T04:40:38;5.90;;;2.83;;
18125;SDS011;53956;52.442;13.284;2022-09-03T04:43:04;4.50;;;2.50;;
18125;SDS011;53956;52.442;13.284;2022-09-03T04:45:31;5.53;;;2.50;;
18125;SDS011;53956;52.442;13.284;2022-09-03T04:47:58;5.63;;;2.70;;
18125;SDS011;53956;52.442;13.284;2022-09-03T04:50:28;6.27;;;2.70;;
18125;SDS011;53956;52.442;13.284;2022-09-03T04:53:00;3.90;;;2.42;;
18125;SDS011;53956;52.442;13.284;2022-09-03T04:55:31;4.97;;;2.33;;
18125;SDS011;53956;52.442;13.284;2022-09-03T04:57:58;5.43;;;2.72;;
18125;SDS011;53956;52.442;13.284;2022-09-03T05:00:25;5.13;;;2.60;;
18125;SDS011;53956;52.442;13.284;2022-09-03T05:02:52;3.97;;;2.70;;
18125;SDS011;53956;52.442;13.284;2022-09-03T05:05:19;4.88;;;2.75;;
18125;SDS011;53956;52.442;13.284;2022-09-03T05:07:47;5.70;;;2.53;;
18125;SDS011;53956;52.442;13.284;2022-09-03T05:10:13;4.10;;;2.80;;
18125;SDS011;53956;52.442;13.284;2022-09-03T05:12:44;6.53;;;2.70;;
18125;SDS011;53956;52.442;13.284;2022-09-03T05:15:11;3.40;;;2.70;;
18125;SDS011;53956;52.442;13.284;2022-09-03T05:17:38;5.73;;;3.10;;
18125;SDS011;53956;52.442;13.284;2022-09-03T05:20:05;4.93;;;3.03;;
18125;SDS011;53956;52.442;13.284;2022-09-03T05:22:33;4.57;;;2.88;;
18125;SDS011;53956;52.442;13.284;2022-09-03T05:25:01;6.10;;;2.67;;
18125;SDS011;53956;52.442;13.284;2022-09-03T05:27:28;5.50;;;2.97;;
18125;SDS011;53956;52.442;13.284;2022-09-03T05:29:56;7.57;;;2.90;;
18125;SDS011;53956;52.442;13.284;2022-09-03T05:32:22;4.40;;;2.70;;
18125;SDS011;53956;52.442;13.284;2022-09-03T05:34:49;3.55;;;2.67;;
18125;SDS011;53956;52.442;13.284;2022-09-03T05:37:15;6.50;;;3.00;;
18125;SDS011;53956;52.442;13.284;2022-09-03T05:39:42;4.43;;;2.90;;
18125;SDS011;53956;52.442;13.284;2022-09-03T05:42:10;3.25;;;2.70;;
18125;SDS011;53956;52.442;13.284;2022-09-03T05:44:38;5.57;;;2.87;;
18125;SDS011;53956;52.442;13.284;2022-09-03T05:47:04;4.00;;;3.20;;
18125;SDS011;53956;52.442;13.284;2022-09-03T05:49:31;5.03;;;2.87;;
18125;SDS011;53956;52.442;13.284;2022-09-03T05:51:58;4.17;;;2.90;;
18125;SDS011;53956;52.442;13.284;2022-09-03T05:54:25;4.47;;;2.90;;
18125;SDS011;53956;52.442;13.284;2022-09-03T05:56:52;4.33;;;2.97;;
18125;SDS011;53956;52.442;13.284;2022-09-03T05:59:20;5.07;;;3.00;;
18125;SDS011;53956;52.442;13.284;2022-09-03T06:01:46;6.37;;;3.00;;
18125;SDS011;53956;52.442;13.284;2022-09-03T06:04:14;4.87;;;2.70;;
18125;SDS011;53956;52.442;13.284;2022-09-03T06:06:42;4.57;;;2.80;;
18125;SDS011;53956;52.442;13.284;2022-09-03T06:09:10;9.70;;;3.10;;
18125;SDS011;53956;52.442;13.284;2022-09-03T06:11:41;3.67;;;2.80;;
18125;SDS011;53956;52.442;13.284;2022-09-03T06:14:08;5.17;;;3.03;;
18125;SDS011;53956;52.442;13.284;2022-09-03T06:16:38;7.67;;;3.00;;
18125;SDS011;53956;52.442;13.284;2022-09-03T06:19:06;4.75;;;2.78;;
18125;SDS011;53956;52.442;13.284;2022-09-03T06:21:35;4.68;;;3.00;;
18125;SDS011;53956;52.442;13.284;2022-09-03T06:24:07;4.10;;;2.75;;
18125;SDS011;53956;52.442;13.284;2022-09-03T06:26:34;4.22;;;2.65;;
18125;SDS011;53956;52.442;13.284;2022-09-03T06:29:01;3.65;;;2.85;;
18125;SDS011;53956;52.442;13.284;2022-09-03T06:31:27;5.07;;;3.03;;
18125;SDS011;53956;52.442;13.284;2022-09-03T06:33:55;6.72;;;3.10;;
18125;SDS011;53956;52.442;13.284;2022-09-03T06:36:22;6.32;;;2.97;;
18125;SDS011;53956;52.442;13.284;2022-09-03T06:38:51;7.63;;;2.83;;
18125;SDS011;53956;52.442;13.284;2022-09-03T06:41:19;5.80;;;2.90;;
18125;SDS011;53956;52.442;13.284;2022-09-03T06:43:49;4.13;;;2.70;;
18125;SDS011;53956;52.442;13.284;2022-09-03T06:46:18;6.85;;;3.00;;
18125;SDS011;53956;52.442;13.284;2022-09-03T06:48:46;5.43;;;3.10;;
18125;SDS011;53956;52.442;13.284;2022-09-03T06:51:15;4.43;;;2.85;;
18125;SDS011;53956;52.442;13.284;2022-09-03T06:53:43;5.65;;;2.67;;
18125;SDS011;53956;52.442;13.284;2022-09-03T06:56:12;6.10;;;2.75;;
18125;SDS011;53956;52.442;13.284;2022-09-03T06:58:41;7.05;;;2.80;;
18125;SDS011;53956;52.442;13.284;2022-09-03T07:01:10;4.10;;;2.60;;
18125;SDS011;53956;52.442;13.284;2022-09-03T07:03:38;4.57;;;2.72;;
18125;SDS011;53956;52.442;13.284;2022-09-03T07:06:07;4.05;;;2.80;;
18125;SDS011;53956;52.442;13.284;2022-09-03T07:08:36;3.25;;;2.72;;
18125;SDS011;53956;52.442;13.284;2022-09-03T07:11:04;4.65;;;2.42;;
18125;SDS011;53956;52.442;13.284;2022-09-03T07:13:33;3.88;;;2.80;;
18125;SDS011;53956;52.442;13.284;2022-09-03T07:16:00;3.97;;;2.50;;
18125;SDS011;53956;52.442;13.284;2022-09-03T07:18:28;6.55;;;2.60;;
18125;SDS011;53956;52.442;13.284;2022-09-03T07:20:58;3.10;;;2.28;;
18125;SDS011;53956;52.442;13.284;2022-09-03T07:23:26;3.60;;;2.25;;
18125;SDS011;53956;52.442;13.284;2022-09-03T07:25:55;4.38;;;2.47;;
18125;SDS011;53956;52.442;13.284;2022-09-03T07:28:23;5.68;;;2.30;;
18125;SDS011;53956;52.442;13.284;2022-09-03T07:30:51;4.05;;;2.50;;
18125;SDS011;53956;52.442;13.284;2022-09-03T07:33:18;7.07;;;2.60;;
18125;SDS011;53956;52.442;13.284;2022-09-03T07:35:45;4.28;;;2.45;;
18125;SDS011;53956;52.442;13.284;2022-09-03T07:38:15;4.35;;;2.50;;
18125;SDS011;53956;52.442;13.284;2022-09-03T07:40:43;4.53;;;2.38;;
18125;SDS011;53956;52.442;13.284;2022-09-03T07:43:12;4.38;;;2.40;;
18125;SDS011;53956;52.442;13.284;2022-09-03T07:45:38;4.15;;;2.50;;
18125;SDS011;53956;52.442;13.284;2022-09-03T07:48:05;5.43;;;2.53;;
18125;SDS011;53956;52.442;13.284;2022-09-03T07:50:32;4.13;;;2.50;;
18125;SDS011;53956;52.442;13.284;2022-09-03T07:53:03;4.20;;;2.53;;
18125;SDS011;53956;52.442;13.284;2022-09-03T07:55:30;6.05;;;2.55;;
18125;SDS011;53956;52.442;13.284;2022-09-03T07:57:56;5.65;;;2.40;;
18125;SDS011;53956;52.442;13.284;2022-09-03T08:00:25;4.07;;;2.45;;
18125;SDS011;53956;52.442;13.284;2022-09-03T08:02:52;3.47;;;2.50;;
18125;SDS011;53956;52.442;13.284;2022-09-03T08:05:18;4.78;;;2.30;;
18125;SDS011;53956;52.442;13.284;2022-09-03T08:07:45;5.72;;;2.60;;
18125;SDS011;53956;52.442;13.284;2022-09-03T08:10:12;3.95;;;2.30;;
18125;SDS011;53956;52.442;13.284;2022-09-03T08:12:40;3.90;;;2.10;;
18125;SDS011;53956;52.442;13.284;2022-09-03T08:15:07;4.80;;;2.45;;
18125;SDS011;53956;52.442;13.284;2022-09-03T08:17:36;5.20;;;2.22;;
18125;SDS011;53956;52.442;13.284;2022-09-03T08:20:03;3.92;;;2.30;;
18125;SDS011;53956;52.442;13.284;2022-09-03T08:22:30;4.43;;;2.10;;
18125;SDS011;53956;52.442;13.284;2022-09-03T08:24:58;3.58;;;2.00;;
18125;SDS011;53956;52.442;13.284;2022-09-03T08:27:24;7.63;;;2.72;;
18125;SDS011;53956;52.442;13.284;2022-09-03T08:29:51;6.55;;;2.45;;
18125;SDS011;53956;52.442;13.284;2022-09-03T08:32:18;5.13;;;2.30;;
18125;SDS011;53956;52.442;13.284;2022-09-03T08:34:46;3.45;;;2.30;;
18125;SDS011;53956;52.442;13.284;2022-09-03T08:37:13;4.70;;;2.00;;
18125;SDS011;53956;52.442;13.284;2022-09-03T08:39:39;4.07;;;2.20;;
18125;SDS011;53956;52.442;13.284;2022-09-03T08:42:12;5.20;;;2.10;;
18125;SDS011;53956;52.442;13.284;2022-09-03T08:44:53;3.75;;;2.00;;
18125;SDS011;53956;52.442;13.284;2022-09-03T08:47:22;4.40;;;1.90;;
18125;SDS011;53956;52.442;13.284;2022-09-03T08:49:55;3.85;;;2.05;;
18125;SDS011;53956;52.442;13.284;2022-09-03T08:52:26;3.35;;;2.20;;
18125;SDS011;53956;52.442;13.284;2022-09-03T08:54:58;6.93;;;1.95;;
18125;SDS011;53956;52.442;13.284;2022-09-03T08:57:42;3.50;;;2.05;;
18125;SDS011;53956;52.442;13.284;2022-09-03T09:00:12;4.65;;;1.90;;
18125;SDS011;53956;52.442;13.284;2022-09-03T09:02:42;2.42;;;1.80;;
18125;SDS011;53956;52.442;13.284;2022-09-03T09:05:20;2.55;;;1.70;;
18125;SDS011;53956;52.442;13.284;2022-09-03T09:07:50;3.05;;;1.95;;
18125;SDS011;53956;52.442;13.284;2022-09-03T09:10:22;2.65;;;1.60;;
18125;SDS011;53956;52.442;13.284;2022-09-03T09:12:58;4.10;;;1.70;;
18125;SDS011;53956;52.442;13.284;2022-09-03T09:15:39;4.88;;;1.90;;
18125;SDS011;53956;52.442;13.284;2022-09-03T09:18:15;3.63;;;1.80;;
18125;SDS011;53956;52.442;13.284;2022-09-03T09:20:50;4.68;;;2.03;;
18125;SDS011;53956;52.442;13.284;2022-09-03T09:23:23;4.22;;;1.88;;
18125;SDS011;53956;52.442;13.284;2022-09-03T09:25:53;3.38;;;2.08;;
18125;SDS011;53956;52.442;13.284;2022-09-03T09:28:23;5.18;;;2.08;;
18125;SDS011;53956;52.442;13.284;2022-09-03T09:30:52;5.20;;;1.90;;
18125;SDS011;53956;52.442;13.284;2022-09-03T09:33:21;4.65;;;1.90;;
18125;SDS011;53956;52.442;13.284;2022-09-03T09:35:50;3.00;;;1.85;;
18125;SDS011;53956;52.442;13.284;2022-09-03T09:38:26;3.05;;;1.60;;
18125;SDS011;53956;52.442;13.284;2022-09-03T09:40:53;3.92;;;1.83;;
18125;SDS011;53956;52.442;13.284;2022-09-03T09:43:21;4.85;;;1.80;;
18125;SDS011;53956;52.442;13.284;2022-09-03T09:45:49;3.60;;;1.92;;
18125;SDS011;53956;52.442;13.284;2022-09-03T09:48:19;2.92;;;1.75;;
18125;SDS011;53956;52.442;13.284;2022-09-03T09:50:52;2.70;;;1.73;;
18125;SDS011;53956;52.442;13.284;2022-09-03T09:53:29;2.58;;;1.70;;
18125;SDS011;53956;52.442;13.284;2022-09-03T09:55:56;3.08;;;1.70;;
18125;SDS011;53956;52.442;13.284;2022-09-03T09:58:24;2.80;;;1.60;;
18125;SDS011;53956;52.442;13.284;2022-09-03T10:00:59;4.72;;;1.75;;
18125;SDS011;53956;52.442;13.284;2022-09-03T10:03:29;2.92;;;1.50;;
18125;SDS011;53956;52.442;13.284;2022-09-03T10:06:05;2.67;;;1.42;;
18125;SDS011;53956;52.442;13.284;2022-09-03T10:08:51;3.60;;;1.70;;
18125;SDS011;53956;52.442;13.284;2022-09-03T10:11:19;2.75;;;1.40;;
18125;SDS011;53956;52.442;13.284;2022-09-03T10:13:49;2.75;;;1.50;;
18125;SDS011;53956;52.442;13.284;2022-09-03T10:16:21;4.25;;;1.50;;
18125;SDS011;53956;52.442;13.284;2022-09-03T10:18:52;4.38;;;1.55;;
18125;SDS011;53956;52.442;13.284;2022-09-03T10:21:29;2.00;;;1.33;;
18125;SDS011;53956;52.442;13.284;2022-09-03T10:24:02;2.97;;;1.60;;
18125;SDS011;53956;52.442;13.284;2022-09-03T10:26:40;4.18;;;1.70;;
18125;SDS011;53956;52.442;13.284;2022-09-03T10:29:08;1.65;;;1.40;;
18125;SDS011;53956;52.442;13.284;2022-09-03T10:31:38;2.85;;;1.50;;
18125;SDS011;53956;52.442;13.284;2022-09-03T10:34:15;3.13;;;1.48;;
18125;SDS011;53956;52.442;13.284;2022-09-03T10:36:52;2.85;;;1.50;;
18125;SDS011;53956;52.442;13.284;2022-09-03T10:39:30;3.35;;;1.48;;
18125;SDS011;53956;52.442;13.284;2022-09-03T10:42:08;5.30;;;1.80;;
18125;SDS011;53956;52.442;13.284;2022-09-03T10:44:48;4.45;;;1.50;;
18125;SDS011;53956;52.442;13.284;2022-09-03T10:47:30;2.22;;;1.60;;
18125;SDS011;53956;52.442;13.284;2022-09-03T10:50:08;2.47;;;1.42;;
18125;SDS011;53956;52.442;13.284;2022-09-03T10:52:43;3.03;;;1.50;;
18125;SDS011;53956;52.442;13.284;2022-09-03T10:55:22;3.47;;;1.63;;
18125;SDS011;53956;52.442;13.284;2022-09-03T10:58:00;2.65;;;1.50;;
18125;SDS011;53956;52.442;13.284;2022-09-03T11:00:37;3.25;;;1.52;;
18125;SDS011;53956;52.442;13.284;2022-09-03T11:03:18;2.45;;;1.52;;
18125;SDS011;53956;52.442;13.284;2022-09-03T11:06:00;5.43;;;2.05;;
18125;SDS011;53956;52.442;13.284;2022-09-03T11:08:33;2.78;;;1.50;;
18125;SDS011;53956;52.442;13.284;2022-09-03T11:11:09;4.65;;;1.60;;
18125;SDS011;53956;52.442;13.284;2022-09-03T11:13:41;2.28;;;1.45;;
18125;SDS011;53956;52.442;13.284;2022-09-03T11:16:12;3.90;;;1.40;;
18125;SDS011;53956;52.442;13.284;2022-09-03T11:18:45;3.88;;;1.80;;
18125;SDS011;53956;52.442;13.284;2022-09-03T11:21:15;3.00;;;1.35;;
18125;SDS011;53956;52.442;13.284;2022-09-03T11:23:48;3.75;;;1.75;;
18125;SDS011;53956;52.442;13.284;2022-09-03T11:26:18;4.75;;;1.50;;
18125;SDS011;53956;52.442;13.284;2022-09-03T11:28:50;3.20;;;1.65;;
18125;SDS011;53956;52.442;13.284;2022-09-03T11:31:24;6.18;;;1.75;;
18125;SDS011;53956;52.442;13.284;2022-09-03T11:33:58;5.57;;;1.55;;
18125;SDS011;53956;52.442;13.284;2022-09-03T11:36:31;3.60;;;1.60;;
18125;SDS011;53956;52.442;13.284;2022-09-03T11:39:00;3.67;;;1.60;;
18125;SDS011;53956;52.442;13.284;2022-09-03T11:41:40;6.78;;;1.90;;
18125;SDS011;53956;52.442;13.284;2022-09-03T11:44:15;4.85;;;1.45;;
18125;SDS011;53956;52.442;13.284;2022-09-03T11:46:54;3.00;;;1.52;;
18125;SDS011;53956;52.442;13.284;2022-09-03T11:49:27;2.78;;;1.50;;
18125;SDS011;53956;52.442;13.284;2022-09-03T11:51:57;2.15;;;1.50;;
18125;SDS011;53956;52.442;13.284;2022-09-03T11:54:30;3.45;;;1.60;;
18125;SDS011;53956;52.442;13.284;2022-09-03T11:57:08;2.15;;;1.50;;
18125;SDS011;53956;52.442;13.284;2022-09-03T11:59:38;3.55;;;1.60;;
18125;SDS011;53956;52.442;13.284;2022-09-03T12:02:11;1.83;;;1.50;;
18125;SDS011;53956;52.442;13.284;2022-09-03T12:04:50;2.95;;;1.67;;
18125;SDS011;53956;52.442;13.284;2022-09-03T12:07:38;2.38;;;1.40;;
18125;SDS011;53956;52.442;13.284;2022-09-03T12:10:19;4.45;;;1.60;;
18125;SDS011;53956;52.442;13.284;2022-09-03T12:13:06;1.95;;;1.75;;
18125;SDS011;53956;52.442;13.284;2022-09-03T12:18:49;4.90;;;1.83;;
18125;SDS011;53956;52.442;13.284;2022-09-03T12:21:19;3.05;;;1.50;;
18125;SDS011;53956;52.442;13.284;2022-09-03T12:23:46;5.28;;;1.80;;
18125;SDS011;53956;52.442;13.284;2022-09-03T12:26:16;2.25;;;1.58;;
18125;SDS011;53956;52.442;13.284;2022-09-03T12:28:45;3.53;;;1.80;;
18125;SDS011;53956;52.442;13.284;2022-09-03T12:31:16;2.72;;;1.48;;
18125;SDS011;53956;52.442;13.284;2022-09-03T12:33:49;6.13;;;1.70;;
18125;SDS011;53956;52.442;13.284;2022-09-03T12:36:18;1.92;;;1.63;;
18125;SDS011;53956;52.442;13.284;2022-09-03T12:38:45;5.88;;;1.50;;
18125;SDS011;53956;52.442;13.284;2022-09-03T12:41:20;4.47;;;1.70;;
18125;SDS011;53956;52.442;13.284;2022-09-03T12:43:50;5.32;;;1.88;;
18125;SDS011;53956;52.442;13.284;2022-09-03T12:46:21;2.60;;;1.52;;
18125;SDS011;53956;52.442;13.284;2022-09-03T12:48:55;4.07;;;1.65;;
18125;SDS011;53956;52.442;13.284;2022-09-03T12:51:32;2.20;;;1.48;;
18125;SDS011;53956;52.442;13.284;2022-09-03T12:54:02;2.55;;;1.73;;
18125;SDS011;53956;52.442;13.284;2022-09-03T12:56:33;3.65;;;1.65;;
18125;SDS011;53956;52.442;13.284;2022-09-03T12:59:02;2.03;;;1.60;;
18125;SDS011;53956;52.442;13.284;2022-09-03T13:01:32;4.25;;;1.52;;
18125;SDS011;53956;52.442;13.284;2022-09-03T13:04:03;2.47;;;1.40;;
18125;SDS011;53956;52.442;13.284;2022-09-03T13:06:38;3.10;;;1.55;;
18125;SDS011;53956;52.442;13.284;2022-09-03T13:09:14;3.30;;;1.50;;
18125;SDS011;53956;52.442;13.284;2022-09-03T13:11:46;3.78;;;1.50;;
18125;SDS011;53956;52.442;13.284;2022-09-03T13:14:13;4.90;;;1.73;;
18125;SDS011;53956;52.442;13.284;2022-09-03T13:19:40;3.30;;;1.98;;
18125;SDS011;53956;52.442;13.284;2022-09-03T13:25:24;2.22;;;1.67;;
18125;SDS011;53956;52.442;13.284;2022-09-03T13:27:58;4.32;;;1.48;;
18125;SDS011;53956;52.442;13.284;2022-09-03T13:30:36;2.15;;;1.67;;
18125;SDS011;53956;52.442;13.284;2022-09-03T13:33:14;2.22;;;1.58;;
18125;SDS011;53956;52.442;13.284;2022-09-03T13:35:46;3.85;;;1.63;;
18125;SDS011;53956;52.442;13.284;2022-09-03T13:38:19;4.22;;;1.90;;
18125;SDS011;53956;52.442;13.284;2022-09-03T13:40:53;3.80;;;1.92;;
18125;SDS011;53956;52.442;13.284;2022-09-03T13:43:27;2.90;;;1.80;;
18125;SDS011;53956;52.442;13.284;2022-09-03T13:45:59;2.97;;;1.70;;
18125;SDS011;53956;52.442;13.284;2022-09-03T13:48:33;3.40;;;1.73;;
18125;SDS011;53956;52.442;13.284;2022-09-03T13:51:23;2.70;;;1.73;;
18125;SDS011;53956;52.442;13.284;2022-09-03T13:53:58;3.80;;;1.75;;
18125;SDS011;53956;52.442;13.284;2022-09-03T13:56:41;2.88;;;1.80;;
18125;SDS011;53956;52.442;13.284;2022-09-03T13:59:18;1.83;;;1.50;;
18125;SDS011;53956;52.442;13.284;2022-09-03T14:02:06;3.70;;;1.73;;
18125;SDS011;53956;52.442;13.284;2022-09-03T14:04:43;2.58;;;1.77;;
18125;SDS011;53956;52.442;13.284;2022-09-03T14:07:18;2.72;;;1.70;;
18125;SDS011;53956;52.442;13.284;2022-09-03T14:09:51;3.00;;;1.65;;
18125;SDS011;53956;52.442;13.284;2022-09-03T14:12:24;4.20;;;1.70;;
18125;SDS011;53956;52.442;13.284;2022-09-03T14:15:02;2.40;;;1.67;;
18125;SDS011;53956;52.442;13.284;2022-09-03T14:17:37;2.25;;;1.50;;
18125;SDS011;53956;52.442;13.284;2022-09-03T14:20:10;4.05;;;1.60;;
18125;SDS011;53956;52.442;13.284;2022-09-03T14:22:44;2.47;;;1.67;;
18125;SDS011;53956;52.442;13.284;2022-09-03T14:25:17;2.70;;;1.80;;
18125;SDS011;53956;52.442;13.284;2022-09-03T14:27:45;4.55;;;1.73;;
18125;SDS011;53956;52.442;13.284;2022-09-03T14:30:24;4.70;;;1.80;;
18125;SDS011;53956;52.442;13.284;2022-09-03T14:33:02;2.85;;;1.90;;
18125;SDS011;53956;52.442;13.284;2022-09-03T14:35:37;4.20;;;1.90;;
18125;SDS011;53956;52.442;13.284;2022-09-03T14:38:19;3.50;;;1.65;;
18125;SDS011;53956;52.442;13.284;2022-09-03T14:41:02;2.85;;;1.90;;
18125;SDS011;53956;52.442;13.284;2022-09-03T14:46:34;5.72;;;1.85;;
18125;SDS011;53956;52.442;13.284;2022-09-03T14:49:24;3.85;;;2.20;;
18125;SDS011;53956;52.442;13.284;2022-09-03T14:52:12;2.58;;;1.90;;
18125;SDS011;53956;52.442;13.284;2022-09-03T14:55:01;3.40;;;1.90;;
18125;SDS011;53956;52.442;13.284;2022-09-03T14:57:55;2.97;;;2.08;;
18125;SDS011;53956;52.442;13.284;2022-09-03T15:00:42;5.20;;;2.08;;
18125;SDS011;53956;52.442;13.284;2022-09-03T15:06:13;7.22;;;2.60;;
18125;SDS011;53956;52.442;13.284;2022-09-03T15:08:53;4.68;;;2.10;;
18125;SDS011;53956;52.442;13.284;2022-09-03T15:11:31;5.60;;;2.00;;
18125;SDS011;53956;52.442;13.284;2022-09-03T15:14:08;2.33;;;1.92;;